sensor_id;sensor_type;location;lat;lon;timestamp;P1;durP1;ratioP1;P2;durP2;ratioP2
3329;SDS011;1677;49.576;10.990;2023-03-24T00:00:04;6.40;;;3.97;;
3329;SDS011;1677;49.576;10.990;2023-03-24T00:02:35;3.70;;;3.33;;
3329;SDS011;1677;49.576;10.990;2023-03-24T00:05:05;4.50;;;3.63;;
3329;SDS011;1677;49.576;10.990;2023-03-24T00:07:32;6.50;;;4.37;;
3329;SDS011;1677;49.576;10.990;2023-03-24T00:09:58;4.67;;;3.33;;
3329;SDS011;1677;49.576;10.990;2023-03-24T00:12:24;8.63;;;4.30;;
3329;SDS011;1677;49.576;10.990;2023-03-24T00:14:49;4.83;;;4.00;;
3329;SDS011;1677;49.576;10.990;2023-03-24T00:17:18;6.20;;;3.77;;
3329;SDS011;1677;49.576;10.990;2023-03-24T00:19:49;4.83;;;4.37;;
3329;SDS011;1677;49.576;10.990;2023-03-24T00:22:15;3.70;;;3.37;;
3329;SDS011;1677;49.576;10.990;2023-03-24T00:24:41;4.23;;;3.20;;
3329;SDS011;1677;49.576;10.990;2023-03-24T00:27:10;4.13;;;2.90;;
3329;SDS011;1677;49.576;10.990;2023-03-24T00:29:41;3.20;;;2.90;;
3329;SDS011;1677;49.576;10.990;2023-03-24T00:32:07;4.40;;;4.00;;
3329;SDS011;1677;49.576;10.990;2023-03-24T00:34:33;5.40;;;3.30;;
3329;SDS011;1677;49.576;10.990;2023-03-24T00:37:02;4.37;;;3.90;;
3329;SDS011;1677;49.576;10.990;2023-03-24T00:39:29;6.03;;;3.60;;
3329;SDS011;1677;49.576;10.990;2023-03-24T00:41:54;3.90;;;3.50;;
3329;SDS011;1677;49.576;10.990;2023-03-24T00:44:22;3.67;;;3.30;;
3329;SDS011;1677;49.576;10.990;2023-03-24T00:46:49;3.57;;;3.30;;
3329;SDS011;1677;49.576;10.990;2023-03-24T00:49:19;4.30;;;3.60;;
3329;SDS011;1677;49.576;10.990;2023-03-24T00:52:05;3.90;;;3.00;;
3329;SDS011;1677;49.576;10.990;2023-03-24T00:54:42;4.10;;;3.40;;
3329;SDS011;1677;49.576;10.990;2023-03-24T00:57:09;4.70;;;3.10;;
3329;SDS011;1677;49.576;10.990;2023-03-24T00:59:36;4.33;;;3.90;;
3329;SDS011;1677;49.576;10.990;2023-03-24T01:02:07;13.50;;;3.97;;
3329;SDS011;1677;49.576;10.990;2023-03-24T01:04:36;5.20;;;3.80;;
3329;SDS011;1677;49.576;10.990;2023-03-24T01:07:04;5.47;;;4.10;;
3329;SDS011;1677;49.576;10.990;2023-03-24T01:09:31;3.53;;;3.00;;
3329;SDS011;1677;49.576;10.990;2023-03-24T01:12:03;3.60;;;3.30;;
3329;SDS011;1677;49.576;10.990;2023-03-24T01:14:30;3.83;;;3.40;;
3329;SDS011;1677;49.576;10.990;2023-03-24T01:16:56;4.70;;;4.00;;
3329;SDS011;1677;49.576;10.990;2023-03-24T01:19:22;5.00;;;3.33;;
3329;SDS011;1677;49.576;10.990;2023-03-24T01:21:49;3.53;;;3.23;;
3329;SDS011;1677;49.576;10.990;2023-03-24T01:24:15;4.30;;;3.87;;
3329;SDS011;1677;49.576;10.990;2023-03-24T01:26:42;3.67;;;3.37;;
3329;SDS011;1677;49.576;10.990;2023-03-24T01:29:08;4.10;;;3.63;;
3329;SDS011;1677;49.576;10.990;2023-03-24T01:31:34;4.97;;;4.30;;
3329;SDS011;1677;49.576;10.990;2023-03-24T01:34:00;4.80;;;4.30;;
3329;SDS011;1677;49.576;10.990;2023-03-24T01:36:26;4.33;;;3.93;;
3329;SDS011;1677;49.576;10.990;2023-03-24T01:38:52;4.90;;;4.40;;
3329;SDS011;1677;49.576;10.990;2023-03-24T01:41:18;4.27;;;3.43;;
3329;SDS011;1677;49.576;10.990;2023-03-24T01:43:43;5.67;;;3.93;;
3329;SDS011;1677;49.576;10.990;2023-03-24T01:46:16;4.30;;;3.60;;
3329;SDS011;1677;49.576;10.990;2023-03-24T01:48:57;4.30;;;3.20;;
3329;SDS011;1677;49.576;10.990;2023-03-24T01:51:31;6.03;;;4.23;;
3329;SDS011;1677;49.576;10.990;2023-03-24T01:54:13;4.07;;;3.67;;
3329;SDS011;1677;49.576;10.990;2023-03-24T01:56:55;4.70;;;4.30;;
3329;SDS011;1677;49.576;10.990;2023-03-24T01:59:26;5.33;;;4.00;;
3329;SDS011;1677;49.576;10.990;2023-03-24T02:01:54;6.20;;;3.47;;
3329;SDS011;1677;49.576;10.990;2023-03-24T02:04:28;5.63;;;4.60;;
3329;SDS011;1677;49.576;10.990;2023-03-24T02:06:55;4.13;;;3.73;;
3329;SDS011;1677;49.576;10.990;2023-03-24T02:09:25;4.10;;;3.47;;
3329;SDS011;1677;49.576;10.990;2023-03-24T02:11:50;5.17;;;4.10;;
3329;SDS011;1677;49.576;10.990;2023-03-24T02:14:16;5.57;;;4.87;;
3329;SDS011;1677;49.576;10.990;2023-03-24T02:16:52;5.23;;;4.00;;
3329;SDS011;1677;49.576;10.990;2023-03-24T02:40:59;4.47;;;3.50;;
3329;SDS011;1677;49.576;10.990;2023-03-24T02:46:38;5.83;;;4.90;;
3329;SDS011;1677;49.576;10.990;2023-03-24T02:49:10;7.50;;;4.30;;
3329;SDS011;1677;49.576;10.990;2023-03-24T02:51:59;4.53;;;3.53;;
3329;SDS011;1677;49.576;10.990;2023-03-24T02:57:09;3.97;;;3.67;;
3329;SDS011;1677;49.576;10.990;2023-03-24T03:02:26;7.57;;;5.00;;
3329;SDS011;1677;49.576;10.990;2023-03-24T03:05:08;5.10;;;3.87;;
3329;SDS011;1677;49.576;10.990;2023-03-24T03:07:39;4.10;;;3.70;;
3329;SDS011;1677;49.576;10.990;2023-03-24T03:10:14;4.63;;;3.83;;
3329;SDS011;1677;49.576;10.990;2023-03-24T03:12:43;3.90;;;3.43;;
3329;SDS011;1677;49.576;10.990;2023-03-24T03:15:13;5.03;;;4.53;;
3329;SDS011;1677;49.576;10.990;2023-03-24T03:17:45;5.93;;;4.17;;
3329;SDS011;1677;49.576;10.990;2023-03-24T03:20:17;6.30;;;3.67;;
3329;SDS011;1677;49.576;10.990;2023-03-24T03:22:56;5.03;;;4.20;;
3329;SDS011;1677;49.576;10.990;2023-03-24T03:25:34;5.50;;;4.63;;
3329;SDS011;1677;49.576;10.990;2023-03-24T03:28:07;4.80;;;4.33;;
3329;SDS011;1677;49.576;10.990;2023-03-24T03:30:40;4.67;;;3.97;;
3329;SDS011;1677;49.576;10.990;2023-03-24T03:33:08;5.73;;;4.10;;
3329;SDS011;1677;49.576;10.990;2023-03-24T03:35:44;6.23;;;4.27;;
3329;SDS011;1677;49.576;10.990;2023-03-24T03:38:17;6.50;;;4.30;;
3329;SDS011;1677;49.576;10.990;2023-03-24T03:41:02;4.03;;;3.60;;
3329;SDS011;1677;49.576;10.990;2023-03-24T03:43:30;3.83;;;3.20;;
3329;SDS011;1677;49.576;10.990;2023-03-24T03:45:57;4.87;;;3.97;;
3329;SDS011;1677;49.576;10.990;2023-03-24T03:48:24;5.43;;;4.60;;
3329;SDS011;1677;49.576;10.990;2023-03-24T03:50:51;6.50;;;4.57;;
3329;SDS011;1677;49.576;10.990;2023-03-24T03:53:19;8.50;;;3.70;;
3329;SDS011;1677;49.576;10.990;2023-03-24T03:55:48;4.30;;;3.90;;
3329;SDS011;1677;49.576;10.990;2023-03-24T03:58:14;4.63;;;4.13;;
3329;SDS011;1677;49.576;10.990;2023-03-24T04:00:41;4.50;;;3.77;;
3329;SDS011;1677;49.576;10.990;2023-03-24T04:03:18;4.70;;;4.30;;
3329;SDS011;1677;49.576;10.990;2023-03-24T04:11:56;4.90;;;4.50;;
3329;SDS011;1677;49.576;10.990;2023-03-24T04:14:46;4.13;;;3.73;;
3329;SDS011;1677;49.576;10.990;2023-03-24T04:22:35;7.63;;;5.10;;
3329;SDS011;1677;49.576;10.990;2023-03-24T04:30:32;4.97;;;4.47;;
3329;SDS011;1677;49.576;10.990;2023-03-24T04:35:46;5.30;;;4.00;;
3329;SDS011;1677;49.576;10.990;2023-03-24T04:38:21;4.70;;;4.30;;
3329;SDS011;1677;49.576;10.990;2023-03-24T04:40:52;4.60;;;4.20;;
3329;SDS011;1677;49.576;10.990;2023-03-24T04:43:20;5.93;;;3.90;;
3329;SDS011;1677;49.576;10.990;2023-03-24T04:45:49;6.33;;;4.83;;
3329;SDS011;1677;49.576;10.990;2023-03-24T04:48:17;4.70;;;4.17;;
3329;SDS011;1677;49.576;10.990;2023-03-24T04:50:47;5.40;;;4.10;;
3329;SDS011;1677;49.576;10.990;2023-03-24T04:53:19;6.60;;;3.70;;
3329;SDS011;1677;49.576;10.990;2023-03-24T04:58:13;6.07;;;4.33;;
3329;SDS011;1677;49.576;10.990;2023-03-24T05:00:43;6.40;;;4.30;;
3329;SDS011;1677;49.576;10.990;2023-03-24T05:03:09;6.80;;;4.53;;
3329;SDS011;1677;49.576;10.990;2023-03-24T05:05:39;5.00;;;4.47;;
3329;SDS011;1677;49.576;10.990;2023-03-24T05:08:06;4.20;;;3.80;;
3329;SDS011;1677;49.576;10.990;2023-03-24T05:10:32;5.13;;;4.10;;
3329;SDS011;1677;49.576;10.990;2023-03-24T05:13:02;5.17;;;3.97;;
3329;SDS011;1677;49.576;10.990;2023-03-24T05:15:30;7.10;;;4.60;;
3329;SDS011;1677;49.576;10.990;2023-03-24T05:17:56;6.13;;;4.50;;
3329;SDS011;1677;49.576;10.990;2023-03-24T05:20:22;5.83;;;4.53;;
3329;SDS011;1677;49.576;10.990;2023-03-24T05:22:48;5.73;;;4.27;;
3329;SDS011;1677;49.576;10.990;2023-03-24T05:25:14;6.07;;;4.37;;
3329;SDS011;1677;49.576;10.990;2023-03-24T05:27:41;4.87;;;4.47;;
3329;SDS011;1677;49.576;10.990;2023-03-24T05:30:07;4.50;;;3.63;;
3329;SDS011;1677;49.576;10.990;2023-03-24T05:32:33;4.60;;;4.00;;
3329;SDS011;1677;49.576;10.990;2023-03-24T05:34:59;6.57;;;4.27;;
3329;SDS011;1677;49.576;10.990;2023-03-24T05:37:24;4.33;;;3.93;;
3329;SDS011;1677;49.576;10.990;2023-03-24T05:39:51;5.57;;;4.50;;
3329;SDS011;1677;49.576;10.990;2023-03-24T05:42:17;3.77;;;3.20;;
3329;SDS011;1677;49.576;10.990;2023-03-24T05:44:43;5.10;;;4.60;;
3329;SDS011;1677;49.576;10.990;2023-03-24T05:47:09;5.30;;;4.07;;
3329;SDS011;1677;49.576;10.990;2023-03-24T05:49:37;6.43;;;4.57;;
3329;SDS011;1677;49.576;10.990;2023-03-24T05:52:03;5.93;;;4.30;;
3329;SDS011;1677;49.576;10.990;2023-03-24T05:54:29;8.63;;;4.87;;
3329;SDS011;1677;49.576;10.990;2023-03-24T05:56:57;5.90;;;4.97;;
3329;SDS011;1677;49.576;10.990;2023-03-24T05:59:23;5.90;;;4.90;;
3329;SDS011;1677;49.576;10.990;2023-03-24T06:01:49;4.53;;;3.83;;
3329;SDS011;1677;49.576;10.990;2023-03-24T06:04:17;4.13;;;3.77;;
3329;SDS011;1677;49.576;10.990;2023-03-24T06:06:44;7.20;;;4.47;;
3329;SDS011;1677;49.576;10.990;2023-03-24T06:09:10;4.50;;;4.10;;
3329;SDS011;1677;49.576;10.990;2023-03-24T06:11:38;4.67;;;3.87;;
3329;SDS011;1677;49.576;10.990;2023-03-24T06:14:04;8.00;;;4.83;;
3329;SDS011;1677;49.576;10.990;2023-03-24T06:16:32;4.07;;;3.70;;
3329;SDS011;1677;49.576;10.990;2023-03-24T06:19:02;4.70;;;4.07;;
3329;SDS011;1677;49.576;10.990;2023-03-24T06:21:28;4.40;;;3.90;;
3329;SDS011;1677;49.576;10.990;2023-03-24T06:23:54;7.80;;;4.10;;
3329;SDS011;1677;49.576;10.990;2023-03-24T06:26:21;8.13;;;4.13;;
3329;SDS011;1677;49.576;10.990;2023-03-24T06:28:47;5.53;;;4.20;;
3329;SDS011;1677;49.576;10.990;2023-03-24T06:31:15;3.37;;;3.07;;
3329;SDS011;1677;49.576;10.990;2023-03-24T06:33:44;4.33;;;3.93;;
3329;SDS011;1677;49.576;10.990;2023-03-24T06:36:10;9.33;;;3.93;;
3329;SDS011;1677;49.576;10.990;2023-03-24T06:38:37;4.37;;;3.80;;
3329;SDS011;1677;49.576;10.990;2023-03-24T06:41:02;8.13;;;3.80;;
3329;SDS011;1677;49.576;10.990;2023-03-24T06:43:29;5.57;;;3.63;;
3329;SDS011;1677;49.576;10.990;2023-03-24T06:45:55;6.60;;;3.60;;
3329;SDS011;1677;49.576;10.990;2023-03-24T06:48:21;5.73;;;3.87;;
3329;SDS011;1677;49.576;10.990;2023-03-24T06:50:48;7.10;;;3.23;;
3329;SDS011;1677;49.576;10.990;2023-03-24T06:53:13;5.53;;;3.33;;
3329;SDS011;1677;49.576;10.990;2023-03-24T06:55:39;7.43;;;4.60;;
3329;SDS011;1677;49.576;10.990;2023-03-24T06:58:05;4.10;;;3.30;;
3329;SDS011;1677;49.576;10.990;2023-03-24T07:00:31;4.37;;;3.87;;
3329;SDS011;1677;49.576;10.990;2023-03-24T07:02:56;4.67;;;3.40;;
3329;SDS011;1677;49.576;10.990;2023-03-24T07:05:22;3.60;;;3.23;;
3329;SDS011;1677;49.576;10.990;2023-03-24T07:07:48;10.10;;;3.53;;
3329;SDS011;1677;49.576;10.990;2023-03-24T07:10:14;3.73;;;3.33;;
3329;SDS011;1677;49.576;10.990;2023-03-24T07:12:40;4.90;;;3.30;;
3329;SDS011;1677;49.576;10.990;2023-03-24T07:15:06;2.73;;;2.50;;
3329;SDS011;1677;49.576;10.990;2023-03-24T07:17:33;3.53;;;3.20;;
3329;SDS011;1677;49.576;10.990;2023-03-24T07:19:59;4.53;;;2.93;;
3329;SDS011;1677;49.576;10.990;2023-03-24T07:22:24;3.20;;;2.70;;
3329;SDS011;1677;49.576;10.990;2023-03-24T07:24:50;2.73;;;2.47;;
3329;SDS011;1677;49.576;10.990;2023-03-24T07:27:16;3.67;;;2.30;;
3329;SDS011;1677;49.576;10.990;2023-03-24T07:29:42;3.07;;;2.03;;
3329;SDS011;1677;49.576;10.990;2023-03-24T07:32:07;2.97;;;1.97;;
3329;SDS011;1677;49.576;10.990;2023-03-24T07:34:33;2.50;;;2.27;;
3329;SDS011;1677;49.576;10.990;2023-03-24T07:37:00;2.90;;;1.83;;
3329;SDS011;1677;49.576;10.990;2023-03-24T07:39:26;2.33;;;2.07;;
3329;SDS011;1677;49.576;10.990;2023-03-24T07:41:52;3.83;;;2.30;;
3329;SDS011;1677;49.576;10.990;2023-03-24T07:44:18;2.80;;;1.93;;
3329;SDS011;1677;49.576;10.990;2023-03-24T07:46:43;2.57;;;2.10;;
3329;SDS011;1677;49.576;10.990;2023-03-24T07:49:09;2.00;;;1.70;;
3329;SDS011;1677;49.576;10.990;2023-03-24T07:51:35;3.50;;;2.03;;
3329;SDS011;1677;49.576;10.990;2023-03-24T07:54:01;1.60;;;1.50;;
3329;SDS011;1677;49.576;10.990;2023-03-24T07:56:27;1.53;;;1.43;;
3329;SDS011;1677;49.576;10.990;2023-03-24T07:58:52;1.90;;;1.70;;
3329;SDS011;1677;49.576;10.990;2023-03-24T08:01:18;1.83;;;1.70;;
3329;SDS011;1677;49.576;10.990;2023-03-24T08:03:43;1.70;;;1.50;;
3329;SDS011;1677;49.576;10.990;2023-03-24T08:06:09;1.80;;;1.47;;
3329;SDS011;1677;49.576;10.990;2023-03-24T08:08:36;2.50;;;1.83;;
3329;SDS011;1677;49.576;10.990;2023-03-24T08:11:02;2.10;;;1.47;;
3329;SDS011;1677;49.576;10.990;2023-03-24T08:13:28;2.07;;;1.67;;
3329;SDS011;1677;49.576;10.990;2023-03-24T08:15:54;2.00;;;1.50;;
3329;SDS011;1677;49.576;10.990;2023-03-24T08:18:20;2.23;;;2.03;;
3329;SDS011;1677;49.576;10.990;2023-03-24T08:20:48;2.93;;;1.63;;
3329;SDS011;1677;49.576;10.990;2023-03-24T08:23:14;1.90;;;1.47;;
3329;SDS011;1677;49.576;10.990;2023-03-24T08:25:42;1.93;;;1.70;;
3329;SDS011;1677;49.576;10.990;2023-03-24T08:28:07;2.00;;;1.53;;
3329;SDS011;1677;49.576;10.990;2023-03-24T08:30:33;1.77;;;1.53;;
3329;SDS011;1677;49.576;10.990;2023-03-24T08:33:00;1.40;;;1.30;;
3329;SDS011;1677;49.576;10.990;2023-03-24T08:35:33;1.80;;;1.70;;
3329;SDS011;1677;49.576;10.990;2023-03-24T08:38:02;2.40;;;1.57;;
3329;SDS011;1677;49.576;10.990;2023-03-24T08:40:28;1.90;;;1.67;;
3329;SDS011;1677;49.576;10.990;2023-03-24T08:42:56;3.37;;;2.03;;
3329;SDS011;1677;49.576;10.990;2023-03-24T08:45:25;1.87;;;1.10;;
3329;SDS011;1677;49.576;10.990;2023-03-24T08:47:54;1.90;;;1.80;;
3329;SDS011;1677;49.576;10.990;2023-03-24T08:50:21;2.43;;;1.10;;
3329;SDS011;1677;49.576;10.990;2023-03-24T08:52:49;1.77;;;1.60;;
3329;SDS011;1677;49.576;10.990;2023-03-24T08:55:16;2.23;;;1.83;;
3329;SDS011;1677;49.576;10.990;2023-03-24T08:57:43;2.00;;;1.80;;
3329;SDS011;1677;49.576;10.990;2023-03-24T09:00:10;1.50;;;1.40;;
3329;SDS011;1677;49.576;10.990;2023-03-24T09:02:42;2.07;;;1.80;;
3329;SDS011;1677;49.576;10.990;2023-03-24T09:05:13;1.97;;;1.80;;
3329;SDS011;1677;49.576;10.990;2023-03-24T09:07:39;2.20;;;2.00;;
3329;SDS011;1677;49.576;10.990;2023-03-24T09:10:06;1.73;;;1.43;;
3329;SDS011;1677;49.576;10.990;2023-03-24T09:12:34;3.77;;;1.80;;
3329;SDS011;1677;49.576;10.990;2023-03-24T09:15:00;3.20;;;2.90;;
3329;SDS011;1677;49.576;10.990;2023-03-24T09:17:25;2.63;;;2.40;;
3329;SDS011;1677;49.576;10.990;2023-03-24T09:19:51;2.40;;;2.20;;
3329;SDS011;1677;49.576;10.990;2023-03-24T09:22:17;2.83;;;2.40;;
3329;SDS011;1677;49.576;10.990;2023-03-24T09:24:42;5.10;;;2.93;;
3329;SDS011;1677;49.576;10.990;2023-03-24T09:27:09;3.47;;;2.60;;
3329;SDS011;1677;49.576;10.990;2023-03-24T09:29:34;3.10;;;2.80;;
3329;SDS011;1677;49.576;10.990;2023-03-24T09:32:00;7.97;;;2.90;;
3329;SDS011;1677;49.576;10.990;2023-03-24T09:34:26;3.23;;;2.67;;
3329;SDS011;1677;49.576;10.990;2023-03-24T09:36:51;2.73;;;2.43;;
3329;SDS011;1677;49.576;10.990;2023-03-24T09:39:17;4.00;;;2.80;;
3329;SDS011;1677;49.576;10.990;2023-03-24T09:41:43;4.17;;;2.90;;
3329;SDS011;1677;49.576;10.990;2023-03-24T09:44:20;3.47;;;2.90;;
3329;SDS011;1677;49.576;10.990;2023-03-24T09:47:13;3.63;;;2.97;;
3329;SDS011;1677;49.576;10.990;2023-03-24T09:49:47;4.10;;;2.70;;
3329;SDS011;1677;49.576;10.990;2023-03-24T09:52:16;2.57;;;2.37;;
3329;SDS011;1677;49.576;10.990;2023-03-24T09:54:53;3.23;;;2.70;;
3329;SDS011;1677;49.576;10.990;2023-03-24T09:57:23;5.40;;;2.57;;
3329;SDS011;1677;49.576;10.990;2023-03-24T09:59:52;2.73;;;2.53;;
3329;SDS011;1677;49.576;10.990;2023-03-24T10:02:18;5.30;;;2.60;;
3329;SDS011;1677;49.576;10.990;2023-03-24T10:04:46;2.70;;;2.50;;
3329;SDS011;1677;49.576;10.990;2023-03-24T10:09:59;2.10;;;1.90;;
3329;SDS011;1677;49.576;10.990;2023-03-24T10:20:34;2.77;;;2.50;;
3329;SDS011;1677;49.576;10.990;2023-03-24T10:31:58;2.47;;;2.27;;
3329;SDS011;1677;49.576;10.990;2023-03-24T10:34:28;2.80;;;2.33;;
3329;SDS011;1677;49.576;10.990;2023-03-24T10:36:57;1.87;;;1.70;;
3329;SDS011;1677;49.576;10.990;2023-03-24T10:39:25;2.33;;;2.13;;
3329;SDS011;1677;49.576;10.990;2023-03-24T10:41:53;2.60;;;2.40;;
3329;SDS011;1677;49.576;10.990;2023-03-24T10:44:20;2.30;;;2.00;;
3329;SDS011;1677;49.576;10.990;2023-03-24T10:46:51;2.60;;;1.70;;
3329;SDS011;1677;49.576;10.990;2023-03-24T10:49:20;6.73;;;2.27;;
3329;SDS011;1677;49.576;10.990;2023-03-24T10:51:48;2.50;;;2.30;;
3329;SDS011;1677;49.576;10.990;2023-03-24T10:54:22;2.77;;;2.00;;
3329;SDS011;1677;49.576;10.990;2023-03-24T10:59:39;2.90;;;1.70;;
3329;SDS011;1677;49.576;10.990;2023-03-24T11:02:23;2.23;;;1.87;;
3329;SDS011;1677;49.576;10.990;2023-03-24T11:05:00;2.00;;;1.60;;
3329;SDS011;1677;49.576;10.990;2023-03-24T11:07:43;3.37;;;1.50;;
3329;SDS011;1677;49.576;10.990;2023-03-24T11:10:14;2.70;;;1.77;;
3329;SDS011;1677;49.576;10.990;2023-03-24T11:18:28;3.60;;;1.87;;
3329;SDS011;1677;49.576;10.990;2023-03-24T11:20:35;2.53;;;1.50;;
3329;SDS011;1677;49.576;10.990;2023-03-24T11:28:56;3.50;;;2.40;;
3329;SDS011;1677;49.576;10.990;2023-03-24T11:33:58;3.50;;;1.80;;
3329;SDS011;1677;49.576;10.990;2023-03-24T11:41:25;1.87;;;1.60;;
3329;SDS011;1677;49.576;10.990;2023-03-24T11:44:06;3.10;;;2.50;;
3329;SDS011;1677;49.576;10.990;2023-03-24T11:46:43;1.73;;;1.63;;
3329;SDS011;1677;49.576;10.990;2023-03-24T11:49:17;3.50;;;2.10;;
3329;SDS011;1677;49.576;10.990;2023-03-24T11:51:45;2.73;;;2.10;;
3329;SDS011;1677;49.576;10.990;2023-03-24T11:54:15;3.27;;;2.93;;
3329;SDS011;1677;49.576;10.990;2023-03-24T11:56:45;3.40;;;2.43;;
3329;SDS011;1677;49.576;10.990;2023-03-24T11:59:31;2.70;;;2.40;;
3329;SDS011;1677;49.576;10.990;2023-03-24T12:10:09;1.47;;;1.30;;
3329;SDS011;1677;49.576;10.990;2023-03-24T12:13:02;2.70;;;2.20;;
3329;SDS011;1677;49.576;10.990;2023-03-24T12:15:48;2.60;;;1.83;;
3329;SDS011;1677;49.576;10.990;2023-03-24T12:26:54;2.80;;;1.70;;
3329;SDS011;1677;49.576;10.990;2023-03-24T12:32:23;1.90;;;1.70;;
3329;SDS011;1677;49.576;10.990;2023-03-24T12:53:52;2.07;;;1.83;;
3329;SDS011;1677;49.576;10.990;2023-03-24T12:56:26;1.70;;;1.33;;
3329;SDS011;1677;49.576;10.990;2023-03-24T12:59:00;3.20;;;1.60;;
3329;SDS011;1677;49.576;10.990;2023-03-24T13:04:24;7.00;;;1.67;;
3329;SDS011;1677;49.576;10.990;2023-03-24T13:06:56;3.30;;;1.60;;
3329;SDS011;1677;49.576;10.990;2023-03-24T13:12:14;1.47;;;1.30;;
3329;SDS011;1677;49.576;10.990;2023-03-24T13:17:20;1.67;;;0.90;;
3329;SDS011;1677;49.576;10.990;2023-03-24T13:19:50;2.03;;;1.30;;
3329;SDS011;1677;49.576;10.990;2023-03-24T13:22:17;1.37;;;1.10;;
3329;SDS011;1677;49.576;10.990;2023-03-24T13:24:46;2.00;;;1.50;;
3329;SDS011;1677;49.576;10.990;2023-03-24T13:27:28;1.63;;;1.23;;
3329;SDS011;1677;49.576;10.990;2023-03-24T13:32:39;2.30;;;1.60;;
3329;SDS011;1677;49.576;10.990;2023-03-24T13:38:09;2.77;;;1.80;;
3329;SDS011;1677;49.576;10.990;2023-03-24T13:40:40;2.70;;;1.70;;
3329;SDS011;1677;49.576;10.990;2023-03-24T13:43:15;2.00;;;1.43;;
3329;SDS011;1677;49.576;10.990;2023-03-24T13:45:45;3.60;;;1.50;;
3329;SDS011;1677;49.576;10.990;2023-03-24T13:56:07;3.10;;;2.20;;
3329;SDS011;1677;49.576;10.990;2023-03-24T14:01:36;2.60;;;1.93;;
3329;SDS011;1677;49.576;10.990;2023-03-24T14:09:15;4.17;;;2.33;;
3329;SDS011;1677;49.576;10.990;2023-03-24T14:12:07;2.63;;;1.87;;
3329;SDS011;1677;49.576;10.990;2023-03-24T14:14:32;2.13;;;1.60;;
3329;SDS011;1677;49.576;10.990;2023-03-24T14:19:35;2.53;;;2.30;;
3329;SDS011;1677;49.576;10.990;2023-03-24T14:24:56;3.00;;;1.93;;
3329;SDS011;1677;49.576;10.990;2023-03-24T14:27:32;7.10;;;1.80;;
3329;SDS011;1677;49.576;10.990;2023-03-24T14:33:19;4.70;;;2.07;;
3329;SDS011;1677;49.576;10.990;2023-03-24T14:37:59;1.83;;;1.73;;
3329;SDS011;1677;49.576;10.990;2023-03-24T14:54:39;1.47;;;1.37;;
3329;SDS011;1677;49.576;10.990;2023-03-24T14:57:14;1.50;;;0.90;;
3329;SDS011;1677;49.576;10.990;2023-03-24T15:02:45;1.50;;;1.20;;
3329;SDS011;1677;49.576;10.990;2023-03-24T15:05:27;1.47;;;1.20;;
3329;SDS011;1677;49.576;10.990;2023-03-24T15:10:30;1.30;;;1.20;;
3329;SDS011;1677;49.576;10.990;2023-03-24T15:13:02;1.37;;;1.00;;
3329;SDS011;1677;49.576;10.990;2023-03-24T15:15:28;1.67;;;1.37;;
3329;SDS011;1677;49.576;10.990;2023-03-24T15:17:54;2.30;;;1.50;;
3329;SDS011;1677;49.576;10.990;2023-03-24T15:20:24;3.47;;;1.70;;
3329;SDS011;1677;49.576;10.990;2023-03-24T15:22:52;1.60;;;1.50;;
3329;SDS011;1677;49.576;10.990;2023-03-24T15:25:25;1.57;;;1.00;;
3329;SDS011;1677;49.576;10.990;2023-03-24T15:27:53;1.50;;;1.20;;
3329;SDS011;1677;49.576;10.990;2023-03-24T15:30:20;1.37;;;1.00;;
3329;SDS011;1677;49.576;10.990;2023-03-24T15:32:46;2.07;;;1.07;;
3329;SDS011;1677;49.576;10.990;2023-03-24T15:35:22;3.63;;;1.17;;
3329;SDS011;1677;49.576;10.990;2023-03-24T15:37:52;2.13;;;1.10;;
3329;SDS011;1677;49.576;10.990;2023-03-24T15:42:57;3.50;;;1.23;;
3329;SDS011;1677;49.576;10.990;2023-03-24T15:45:26;1.20;;;1.00;;
3329;SDS011;1677;49.576;10.990;2023-03-24T15:47:53;1.77;;;1.00;;
3329;SDS011;1677;49.576;10.990;2023-03-24T15:53:02;1.70;;;1.20;;
3329;SDS011;1677;49.576;10.990;2023-03-24T15:55:37;1.53;;;1.07;;
3329;SDS011;1677;49.576;10.990;2023-03-24T15:58:19;2.80;;;1.30;;
3329;SDS011;1677;49.576;10.990;2023-03-24T16:00:50;3.23;;;1.30;;
3329;SDS011;1677;49.576;10.990;2023-03-24T16:03:18;1.83;;;1.10;;
3329;SDS011;1677;49.576;10.990;2023-03-24T16:05:44;1.87;;;1.30;;
3329;SDS011;1677;49.576;10.990;2023-03-24T16:11:02;1.87;;;1.70;;
3329;SDS011;1677;49.576;10.990;2023-03-24T16:13:31;3.70;;;1.63;;
3329;SDS011;1677;49.576;10.990;2023-03-24T16:15:59;1.50;;;1.30;;
3329;SDS011;1677;49.576;10.990;2023-03-24T16:18:35;2.37;;;1.77;;
3329;SDS011;1677;49.576;10.990;2023-03-24T16:21:04;1.20;;;1.10;;
3329;SDS011;1677;49.576;10.990;2023-03-24T16:23:47;1.30;;;1.10;;
3329;SDS011;1677;49.576;10.990;2023-03-24T16:26:19;3.17;;;1.77;;
3329;SDS011;1677;49.576;10.990;2023-03-24T16:28:46;2.40;;;1.77;;
3329;SDS011;1677;49.576;10.990;2023-03-24T16:31:15;2.20;;;1.50;;
3329;SDS011;1677;49.576;10.990;2023-03-24T16:33:42;1.57;;;1.20;;
3329;SDS011;1677;49.576;10.990;2023-03-24T16:36:08;1.70;;;1.50;;
3329;SDS011;1677;49.576;10.990;2023-03-24T16:38:35;2.80;;;1.00;;
3329;SDS011;1677;49.576;10.990;2023-03-24T16:41:01;2.43;;;1.57;;
3329;SDS011;1677;49.576;10.990;2023-03-24T16:43:27;2.97;;;1.40;;
3329;SDS011;1677;49.576;10.990;2023-03-24T16:45:57;1.60;;;1.23;;
3329;SDS011;1677;49.576;10.990;2023-03-24T16:48:22;1.50;;;1.20;;
3329;SDS011;1677;49.576;10.990;2023-03-24T16:50:49;1.93;;;1.20;;
3329;SDS011;1677;49.576;10.990;2023-03-24T16:53:15;4.77;;;1.43;;
3329;SDS011;1677;49.576;10.990;2023-03-24T16:55:42;1.43;;;1.13;;
3329;SDS011;1677;49.576;10.990;2023-03-24T16:58:09;3.43;;;1.97;;
3329;SDS011;1677;49.576;10.990;2023-03-24T17:00:37;2.70;;;1.40;;
3329;SDS011;1677;49.576;10.990;2023-03-24T17:03:03;3.47;;;1.90;;
3329;SDS011;1677;49.576;10.990;2023-03-24T17:07:59;3.67;;;1.70;;
3329;SDS011;1677;49.576;10.990;2023-03-24T17:10:25;3.10;;;1.53;;
3329;SDS011;1677;49.576;10.990;2023-03-24T17:12:53;1.97;;;1.20;;
3329;SDS011;1677;49.576;10.990;2023-03-24T17:15:23;3.40;;;2.00;;
3329;SDS011;1677;49.576;10.990;2023-03-24T17:17:50;3.50;;;1.70;;
3329;SDS011;1677;49.576;10.990;2023-03-24T17:20:17;3.47;;;1.97;;
3329;SDS011;1677;49.576;10.990;2023-03-24T17:22:43;2.60;;;1.97;;
3329;SDS011;1677;49.576;10.990;2023-03-24T17:25:11;3.10;;;1.93;;
3329;SDS011;1677;49.576;10.990;2023-03-24T17:27:37;2.80;;;1.80;;
3329;SDS011;1677;49.576;10.990;2023-03-24T17:30:04;6.97;;;2.40;;
3329;SDS011;1677;49.576;10.990;2023-03-24T17:32:31;4.20;;;2.40;;
3329;SDS011;1677;49.576;10.990;2023-03-24T17:34:58;5.17;;;1.70;;
3329;SDS011;1677;49.576;10.990;2023-03-24T17:37:26;2.90;;;1.80;;
3329;SDS011;1677;49.576;10.990;2023-03-24T17:39:55;4.23;;;1.80;;
3329;SDS011;1677;49.576;10.990;2023-03-24T17:42:22;2.70;;;1.90;;
3329;SDS011;1677;49.576;10.990;2023-03-24T17:44:49;2.10;;;1.37;;
3329;SDS011;1677;49.576;10.990;2023-03-24T17:47:15;7.80;;;2.17;;
3329;SDS011;1677;49.576;10.990;2023-03-24T17:49:41;3.20;;;2.63;;
3329;SDS011;1677;49.576;10.990;2023-03-24T17:52:07;3.93;;;2.10;;
3329;SDS011;1677;49.576;10.990;2023-03-24T17:54:32;5.87;;;2.80;;
3329;SDS011;1677;49.576;10.990;2023-03-24T17:56:58;5.70;;;2.80;;
3329;SDS011;1677;49.576;10.990;2023-03-24T17:59:24;4.93;;;2.20;;
3329;SDS011;1677;49.576;10.990;2023-03-24T18:01:49;7.50;;;2.00;;
3329;SDS011;1677;49.576;10.990;2023-03-24T18:04:15;2.93;;;1.60;;
3329;SDS011;1677;49.576;10.990;2023-03-24T18:06:41;6.53;;;1.90;;
3329;SDS011;1677;49.576;10.990;2023-03-24T18:09:07;3.03;;;1.80;;
3329;SDS011;1677;49.576;10.990;2023-03-24T18:11:33;3.30;;;2.00;;
3329;SDS011;1677;49.576;10.990;2023-03-24T18:14:00;3.00;;;2.00;;
3329;SDS011;1677;49.576;10.990;2023-03-24T18:16:26;3.77;;;2.07;;
3329;SDS011;1677;49.576;10.990;2023-03-24T18:18:54;3.17;;;2.43;;
3329;SDS011;1677;49.576;10.990;2023-03-24T18:21:21;4.60;;;1.50;;
3329;SDS011;1677;49.576;10.990;2023-03-24T18:23:47;6.30;;;3.10;;
3329;SDS011;1677;49.576;10.990;2023-03-24T18:26:13;3.70;;;2.73;;
3329;SDS011;1677;49.576;10.990;2023-03-24T18:28:40;11.20;;;8.50;;
3329;SDS011;1677;49.576;10.990;2023-03-24T18:31:10;8.88;;;3.25;;
3329;SDS011;1677;49.576;10.990;2023-03-24T18:33:39;5.73;;;2.60;;